SCBA

Details ICAO SCBA (BBA)
Name Balmaceda
Region Chile
Timezone America/Santiago (UTC-4.0)
Plans Departing 35
Arriving 45
Stats Elevation 1,654 ft / 504 m (AMSL)
Location -45.916025° -71.689470°
Runways 1
Magnetic Variation 9.844° E
Sunrise 2018-05-20 12:07:34 UTC / 2018-05-20 08:07:34 Local
Sunset 2018-05-20 21:21:52 UTC / 2018-05-20 17:21:52 Local
Advertisement - Login to hide

Runways

ID Width Length Bearing (true) Bearing (mag) Surface Threshold Offset Overrun Length
09 148 ft / 45 m 8,213 ft / 2,503 m 89.01° 79.17° Asphalt 0 ft / 0 m 180 ft / 55 m
27 148 ft / 45 m 8,213 ft / 2,503 m 268.99° 259.15° Asphalt 0 ft / 0 m 190 ft / 58 m

Map

Weather


0- 5 10 15 20 25 30 35+ Temperature / ° C

Clouds and Precipitation
Forecast for 2018-05-21 00:00 UTC. Updated 3 hours ago

Ground ~20,000 ft ~40,000 ft Winds

METAR

SCBA 210200Z AUTO 31019KT CAVOK 05/02 Q1017

TAF

TAF SCBA 202236Z 2100/2124 30020KT 9999 SCT030 TN03/2108Z TX09/2119Z

Frequencies

Ground 121.90 MHz GND
Approach 119.70 MHz APP
Tower 118.50 MHz TWR
Warning: Do not use this data for real-world aviation or navigation. No guarantee of current accuracy is given.